Time;durP1;ratioP1;P1;durP2;ratioP2;P2;SDS_P1;SDS_P2;PMS_P1;PMS_P2;Temp;Humidity;BMP_temperature;BMP_pressure;BME280_temperature;BME280_humidity;BME280_pressure;Samples;Min_cycle;Max_cycle;Signal;HPM_P1;HPM_P2
2021/04/07 00:01:49;;;;;;;13.40;6.77;;;1.10;92.40;;;;;;5093653;28;20398;-75
2021/04/07 00:04:15;;;;;;;15.45;6.90;;;1.20;92.70;;;;;;5085404;28;20392;-76
2021/04/07 00:06:41;;;;;;;16.05;6.60;;;1.10;92.00;;;;;;5073869;28;20864;-76
2021/04/07 00:09:08;;;;;;;14.50;6.47;;;1.10;93.00;;;;;;5075214;28;20390;-76
2021/04/07 00:11:34;;;;;;;16.15;7.20;;;1.10;93.90;;;;;;5101952;28;20387;-76
2021/04/07 00:14:04;;;;;;;15.18;7.30;;;1.20;94.10;;;;;;5074049;28;20478;-76
2021/04/07 00:16:29;;;;;;;16.88;7.65;;;1.20;92.50;;;;;;5083842;28;20880;-76
2021/04/07 00:18:55;;;;;;;11.97;7.30;;;1.20;92.60;;;;;;5074755;28;20396;-76
2021/04/07 00:21:20;;;;;;;13.60;7.40;;;1.20;91.00;;;;;;5082427;28;20481;-75
2021/04/07 00:23:46;;;;;;;14.98;7.40;;;1.20;91.20;;;;;;5081307;28;20384;-76
2021/04/07 00:26:11;;;;;;;11.70;7.43;;;1.10;91.30;;;;;;5053684;28;20372;-75
2021/04/07 00:28:37;;;;;;;15.67;7.90;;;1.10;92.70;;;;;;5092722;28;20398;-76
2021/04/07 00:31:03;;;;;;;15.13;7.90;;;1.10;92.30;;;;;;5081432;28;20455;-76
2021/04/07 00:33:28;;;;;;;15.55;8.10;;;1.10;92.20;;;;;;5083274;28;20392;-75
2021/04/07 00:35:54;;;;;;;17.97;7.83;;;1.10;91.70;;;;;;5077642;28;20408;-76
2021/04/07 00:38:20;;;;;;;13.48;8.35;;;1.10;91.30;;;;;;5079940;28;20465;-77
2021/04/07 00:40:46;;;;;;;15.00;7.82;;;1.00;91.10;;;;;;5050887;28;20405;-76
2021/04/07 00:43:11;;;;;;;14.13;8.10;;;1.10;92.00;;;;;;5060985;28;20754;-76
2021/04/07 00:45:38;;;;;;;18.17;8.70;;;1.00;92.00;;;;;;5043705;28;20377;-78
2021/04/07 00:48:04;;;;;;;23.60;9.00;;;1.10;92.50;;;;;;5060217;28;20382;-75
2021/04/07 00:50:31;;;;;;;17.13;9.52;;;1.00;91.80;;;;;;5060386;28;20410;-76
2021/04/07 00:52:57;;;;;;;12.82;8.35;;;1.10;92.80;;;;;;5079531;28;20417;-74
2021/04/07 00:55:26;;;;;;;15.60;8.52;;;1.10;91.90;;;;;;5080708;28;20760;-76
2021/04/07 00:57:53;;;;;;;16.80;8.48;;;1.10;90.00;;;;;;5072436;28;20417;-76
2021/04/07 01:00:20;;;;;;;16.25;8.23;;;1.10;90.10;;;;;;5060106;28;20787;-76
2021/04/07 01:02:47;;;;;;;20.20;7.70;;;1.00;91.30;;;;;;5062831;28;20389;-76
2021/04/07 01:05:13;;;;;;;17.42;7.65;;;1.10;90.20;;;;;;5081246;28;20376;-76
2021/04/07 01:07:38;;;;;;;13.70;7.15;;;1.20;88.90;;;;;;5080351;28;20380;-76
2021/04/07 01:10:09;;;;;;;12.45;7.40;;;1.30;88.30;;;;;;5061054;28;20393;-75
2021/04/07 01:12:36;;;;;;;10.63;6.80;;;1.30;88.50;;;;;;5080479;28;20391;-74
2021/04/07 01:15:03;;;;;;;13.25;6.07;;;1.40;85.70;;;;;;5062652;28;20717;-75
2021/04/07 01:17:29;;;;;;;12.15;6.50;;;1.40;84.70;;;;;;5088059;28;20421;-75
2021/04/07 01:19:55;;;;;;;11.80;6.50;;;1.50;82.70;;;;;;5095466;28;20390;-75
2021/04/07 01:22:22;;;;;;;13.60;6.10;;;1.50;83.00;;;;;;5100355;28;20398;-75
2021/04/07 01:24:48;;;;;;;13.63;6.07;;;1.50;84.50;;;;;;5099032;28;20405;-74
2021/04/07 01:27:15;;;;;;;17.63;6.40;;;1.60;83.10;;;;;;5104556;28;20423;-75
2021/04/07 01:29:41;;;;;;;12.77;6.65;;;1.60;81.80;;;;;;5101824;28;20378;-75
2021/04/07 01:32:06;;;;;;;10.95;5.90;;;1.60;80.90;;;;;;5088556;28;20455;-75
2021/04/07 01:34:33;;;;;;;9.40;4.93;;;1.60;81.20;;;;;;5088861;28;20383;-76
2021/04/07 01:37:00;;;;;;;11.55;4.60;;;1.70;79.50;;;;;;5097062;28;20393;-75
2021/04/07 01:39:28;;;;;;;12.60;4.85;;;1.70;80.00;;;;;;5110126;28;20377;-75
2021/04/07 01:41:54;;;;;;;9.75;4.90;;;1.70;79.30;;;;;;5092439;28;20397;-75
2021/04/07 01:44:23;;;;;;;18.33;5.40;;;1.70;79.50;;;;;;5088116;28;20386;-75
2021/04/07 01:46:48;;;;;;;7.15;4.10;;;1.70;78.90;;;;;;5085467;28;20380;-77
2021/04/07 01:49:15;;;;;;;17.17;4.90;;;1.80;80.20;;;;;;5085376;28;20383;-75
2021/04/07 01:51:41;;;;;;;11.35;4.85;;;1.70;81.30;;;;;;5083062;28;20410;-76
2021/04/07 01:54:16;;;;;;;9.33;4.43;;;1.70;80.40;;;;;;5063654;28;20818;-78
2021/04/07 01:56:56;;;;;;;8.02;3.80;;;1.80;79.50;;;;;;5084472;28;20392;-75
2021/04/07 01:59:30;;;;;;;11.07;4.22;;;1.90;78.00;;;;;;5060648;28;20449;-75
2021/04/07 02:01:56;;;;;;;13.55;4.57;;;1.80;78.50;;;;;;5084596;28;20482;-76
2021/04/07 02:04:23;;;;;;;13.70;4.57;;;1.90;77.60;;;;;;5083317;28;20388;-76
2021/04/07 02:06:48;;;;;;;8.25;4.60;;;1.90;77.50;;;;;;5084288;28;20376;-76
2021/04/07 02:09:16;;;;;;;9.82;4.80;;;1.80;77.50;;;;;;5074852;28;20389;-76
2021/04/07 02:11:46;;;;;;;11.37;4.90;;;1.80;78.90;;;;;;5065833;28;20447;-75
2021/04/07 02:14:16;;;;;;;12.00;5.87;;;1.80;79.50;;;;;;5086221;28;20398;-78
2021/04/07 02:16:47;;;;;;;12.60;5.22;;;1.80;79.80;;;;;;5087068;28;20498;-78
2021/04/07 02:19:13;;;;;;;14.30;5.60;;;1.80;78.00;;;;;;5071160;28;20395;-75
2021/04/07 02:21:39;;;;;;;11.50;5.20;;;1.80;78.80;;;;;;5071875;28;20411;-76
2021/04/07 02:24:04;;;;;;;9.43;4.95;;;1.80;78.50;;;;;;5089081;28;20896;-77
2021/04/07 02:26:31;;;;;;;10.63;5.73;;;1.90;78.20;;;;;;5071326;28;20399;-77
2021/04/07 02:28:58;;;;;;;12.70;5.80;;;1.90;79.20;;;;;;5098446;28;20390;-77
2021/04/07 02:31:23;;;;;;;15.98;5.82;;;1.80;79.50;;;;;;5072844;28;20741;-76
2021/04/07 02:33:49;;;;;;;11.57;5.60;;;1.90;77.40;;;;;;5089949;28;20395;-76
2021/04/07 02:36:15;;;;;;;13.25;6.15;;;1.90;77.60;;;;;;5088811;28;20730;-75
2021/04/07 02:38:40;;;;;;;12.05;6.30;;;1.90;78.10;;;;;;5055500;28;20388;-74
2021/04/07 02:41:06;;;;;;;14.80;6.30;;;1.90;76.90;;;;;;5084044;28;20459;-76
2021/04/07 02:43:32;;;;;;;13.73;6.88;;;1.80;78.40;;;;;;5093747;28;20378;-74
2021/04/07 02:45:59;;;;;;;14.20;6.97;;;1.90;78.40;;;;;;5094237;28;20492;-74
2021/04/07 02:48:25;;;;;;;12.43;6.68;;;1.80;78.20;;;;;;5093605;28;20469;-75
2021/04/07 02:50:51;;;;;;;14.13;6.40;;;1.80;78.50;;;;;;5093621;28;20386;-75
2021/04/07 02:53:16;;;;;;;13.70;7.75;;;1.80;78.50;;;;;;5092996;28;20387;-75
2021/04/07 02:55:42;;;;;;;11.80;7.20;;;1.80;79.60;;;;;;5076361;28;20760;-75
2021/04/07 02:58:07;;;;;;;13.33;7.30;;;1.80;80.50;;;;;;5072326;28;20428;-75
2021/04/07 03:00:33;;;;;;;11.70;7.90;;;1.80;80.50;;;;;;5053220;28;20492;-75
2021/04/07 03:02:58;;;;;;;17.85;8.32;;;1.90;80.70;;;;;;5052739;28;20870;-75
2021/04/07 03:05:24;;;;;;;12.90;8.33;;;1.90;80.20;;;;;;5053181;28;20425;-74
2021/04/07 03:07:50;;;;;;;10.10;7.70;;;1.90;80.90;;;;;;5055775;28;20389;-74
2021/04/07 03:10:15;;;;;;;17.63;8.47;;;2.00;79.30;;;;;;5072995;28;20379;-76
2021/04/07 03:12:41;;;;;;;15.40;8.93;;;2.00;78.90;;;;;;5055211;28;20487;-76
2021/04/07 03:15:11;;;;;;;12.75;8.63;;;2.00;79.10;;;;;;5073288;28;20418;-75
2021/04/07 03:17:38;;;;;;;13.93;9.38;;;2.00;79.00;;;;;;5073221;28;20380;-75
2021/04/07 03:20:06;;;;;;;12.15;8.77;;;2.00;79.40;;;;;;5072904;28;20383;-75
2021/04/07 03:22:31;;;;;;;16.98;9.52;;;2.00;81.20;;;;;;5071432;28;20407;-74
2021/04/07 03:24:57;;;;;;;20.33;9.57;;;2.10;80.40;;;;;;5072992;28;20467;-75
2021/04/07 03:27:24;;;;;;;13.60;9.57;;;2.10;79.50;;;;;;5054843;28;20433;-75
2021/04/07 03:29:49;;;;;;;12.88;9.85;;;2.20;77.50;;;;;;5072815;28;20471;-74
2021/04/07 03:32:15;;;;;;;16.50;10.67;;;2.20;77.90;;;;;;5061411;28;20817;-76
2021/04/07 03:34:41;;;;;;;14.47;10.13;;;2.20;79.40;;;;;;5052460;28;20394;-74
2021/04/07 03:37:06;;;;;;;16.20;11.15;;;2.20;81.80;;;;;;5066821;28;20952;-74
2021/04/07 03:39:32;;;;;;;17.10;11.23;;;2.10;86.20;;;;;;5057191;28;20400;-75
2021/04/07 03:41:57;;;;;;;19.13;11.97;;;2.10;88.50;;;;;;5075039;28;20404;-77
2021/04/07 03:44:23;;;;;;;18.80;12.00;;;2.00;90.50;;;;;;5072323;28;20392;-76
2021/04/07 03:46:53;;;;;;;18.10;11.87;;;2.00;88.80;;;;;;5055031;28;20393;-74
2021/04/07 03:49:18;;;;;;;17.67;12.05;;;2.00;88.20;;;;;;5055107;28;20383;-74
2021/04/07 03:51:44;;;;;;;16.47;11.53;;;2.00;88.00;;;;;;5052192;28;20439;-74
2021/04/07 03:54:10;;;;;;;16.85;11.70;;;2.00;84.80;;;;;;5051516;28;20385;-74
2021/04/07 03:56:35;;;;;;;17.25;10.93;;;2.10;85.90;;;;;;5052055;28;20431;-75
2021/04/07 03:59:01;;;;;;;18.60;11.80;;;2.10;83.40;;;;;;5068803;28;20391;-74
2021/04/07 04:01:26;;;;;;;19.45;11.60;;;2.10;84.70;;;;;;5072266;28;20487;-74
2021/04/07 04:03:52;;;;;;;19.35;11.88;;;2.10;83.90;;;;;;5054840;28;20387;-76
2021/04/07 04:06:18;;;;;;;18.63;12.40;;;2.20;82.80;;;;;;5077410;28;20838;-75
2021/04/07 04:08:43;;;;;;;20.50;12.90;;;2.20;82.90;;;;;;5074351;28;20911;-76
2021/04/07 04:11:09;;;;;;;20.30;13.10;;;2.20;81.40;;;;;;5072436;28;20489;-76
2021/04/07 04:13:34;;;;;;;22.63;13.77;;;2.30;80.90;;;;;;5071831;28;20392;-75
2021/04/07 04:16:00;;;;;;;24.38;13.70;;;2.30;82.20;;;;;;5072150;28;20421;-75
2021/04/07 04:18:26;;;;;;;25.27;14.80;;;2.30;81.60;;;;;;5054442;28;20799;-75
2021/04/07 04:20:51;;;;;;;26.50;15.40;;;2.30;79.80;;;;;;5073074;28;20403;-74
2021/04/07 04:23:17;;;;;;;23.45;15.00;;;2.40;81.20;;;;;;5071607;28;20387;-76
2021/04/07 04:25:42;;;;;;;22.58;13.38;;;2.40;79.30;;;;;;5054364;28;20952;-76
2021/04/07 04:28:08;;;;;;;21.67;13.60;;;2.50;78.00;;;;;;5071448;28;20386;-76
2021/04/07 04:30:34;;;;;;;21.30;13.67;;;2.40;77.90;;;;;;5072834;28;20404;-76
2021/04/07 04:33:00;;;;;;;24.15;13.90;;;2.40;78.20;;;;;;5036189;28;20900;-76
2021/04/07 04:35:26;;;;;;;21.23;13.83;;;2.50;77.90;;;;;;5051789;28;20409;-76
2021/04/07 04:37:51;;;;;;;25.52;15.55;;;2.50;81.50;;;;;;5051347;28;20754;-76
2021/04/07 04:40:18;;;;;;;23.50;14.43;;;2.30;86.40;;;;;;5051221;28;20393;-76
2021/04/07 04:42:44;;;;;;;26.23;15.88;;;2.30;87.50;;;;;;5050872;28;20392;-77
2021/04/07 04:45:10;;;;;;;25.02;14.50;;;2.30;88.20;;;;;;5052095;28;20429;-77
2021/04/07 04:47:36;;;;;;;28.45;15.90;;;2.30;88.10;;;;;;5054120;28;20375;-77
2021/04/07 04:50:07;;;;;;;29.60;15.93;;;2.30;88.60;;;;;;5054069;28;20892;-77
2021/04/07 04:52:33;;;;;;;31.85;16.90;;;2.30;91.60;;;;;;5071802;28;20375;-76
2021/04/07 04:54:58;;;;;;;33.00;16.35;;;2.20;93.70;;;;;;5072477;28;20471;-76
2021/04/07 04:57:25;;;;;;;24.57;15.63;;;2.30;92.40;;;;;;5080359;28;20403;-76
2021/04/07 04:59:50;;;;;;;26.40;15.75;;;2.30;92.20;;;;;;5086904;28;20394;-75
2021/04/07 05:02:16;;;;;;;25.17;15.50;;;2.40;88.80;;;;;;5100906;28;20410;-77
2021/04/07 05:04:41;;;;;;;25.02;16.10;;;2.30;88.90;;;;;;5092512;28;20418;-77
2021/04/07 05:07:07;;;;;;;28.00;15.60;;;2.30;87.90;;;;;;5091590;28;20370;-76
2021/04/07 05:09:33;;;;;;;33.47;18.33;;;2.40;87.00;;;;;;5084113;28;20386;-76
2021/04/07 05:11:58;;;;;;;30.77;16.65;;;2.30;88.00;;;;;;5071502;28;20395;-77
2021/04/07 05:14:24;;;;;;;52.67;31.35;;;2.40;88.90;;;;;;5071207;28;20399;-76
2021/04/07 05:16:49;;;;;;;22.90;14.50;;;2.40;87.70;;;;;;5053190;28;20402;-76
2021/04/07 05:19:15;;;;;;;22.02;14.02;;;2.40;85.50;;;;;;5071253;28;20478;-76
2021/04/07 05:21:41;;;;;;;24.90;14.75;;;2.40;86.40;;;;;;5071415;28;20491;-76
2021/04/07 05:24:07;;;;;;;24.73;14.80;;;2.40;87.00;;;;;;5071068;28;20399;-76
2021/04/07 05:26:35;;;;;;;21.17;13.25;;;2.40;85.90;;;;;;5087506;28;20405;-76
2021/04/07 05:29:00;;;;;;;19.33;14.02;;;2.40;86.40;;;;;;5092153;28;20855;-76
2021/04/07 05:31:26;;;;;;;21.30;14.37;;;2.40;88.20;;;;;;5052608;28;20428;-76
2021/04/07 05:33:51;;;;;;;23.02;13.73;;;2.40;89.40;;;;;;5053571;28;20401;-76
2021/04/07 05:36:17;;;;;;;22.15;13.30;;;2.40;88.30;;;;;;5065095;28;20449;-76
2021/04/07 05:38:43;;;;;;;20.80;13.50;;;2.40;87.50;;;;;;5066200;28;20386;-76
2021/04/07 05:41:09;;;;;;;22.00;14.77;;;2.40;89.60;;;;;;5076189;28;20407;-76
2021/04/07 05:43:37;;;;;;;19.60;12.75;;;2.40;90.60;;;;;;5071348;28;20387;-77
2021/04/07 05:46:03;;;;;;;19.67;13.00;;;2.40;89.00;;;;;;5075040;28;20392;-76
2021/04/07 05:48:29;;;;;;;21.80;13.73;;;2.40;91.70;;;;;;5080731;28;20388;-76
2021/04/07 05:50:55;;;;;;;23.40;14.10;;;2.40;92.60;;;;;;5061712;28;20463;-76
2021/04/07 05:53:22;;;;;;;23.38;15.98;;;2.50;91.10;;;;;;5096494;28;20491;-76
2021/04/07 05:55:50;;;;;;;21.00;14.30;;;2.50;91.60;;;;;;5109279;28;20389;-76
2021/04/07 05:58:15;;;;;;;18.90;13.13;;;2.40;92.60;;;;;;5097397;28;20418;-76
2021/04/07 06:00:42;;;;;;;17.52;12.40;;;2.40;91.20;;;;;;5077564;28;20888;-76
2021/04/07 06:03:09;;;;;;;17.88;12.60;;;2.40;92.10;;;;;;5074145;28;20386;-76
2021/04/07 06:05:41;;;;;;;19.40;12.97;;;2.30;95.30;;;;;;5073061;28;20938;-75
2021/04/07 06:08:07;;;;;;;15.35;13.20;;;2.40;94.80;;;;;;5074490;28;20896;-75
2021/04/07 06:10:35;;;;;;;21.88;12.93;;;2.40;94.90;;;;;;5076174;28;20375;-77
2021/04/07 06:13:02;;;;;;;17.40;12.43;;;2.50;94.40;;;;;;5077581;28;20475;-77
2021/04/07 06:15:28;;;;;;;18.47;12.50;;;2.40;93.90;;;;;;5084158;28;20391;-76
2021/04/07 06:17:59;;;;;;;17.25;11.45;;;2.40;94.30;;;;;;5083892;28;20755;-77
2021/04/07 06:20:27;;;;;;;16.50;11.30;;;2.50;93.60;;;;;;5060896;28;20387;-76
2021/04/07 06:22:54;;;;;;;17.20;12.43;;;2.40;95.40;;;;;;5076315;28;20459;-77
2021/04/07 06:25:20;;;;;;;14.15;11.40;;;2.40;95.80;;;;;;5076232;28;20380;-76
2021/04/07 06:27:50;;;;;;;18.75;11.40;;;2.40;95.90;;;;;;5076144;28;20398;-75
2021/04/07 06:30:17;;;;;;;16.70;11.73;;;2.50;96.00;;;;;;5066091;28;20765;-76
2021/04/07 06:32:43;;;;;;;22.77;11.70;;;2.50;95.40;;;;;;5071237;28;20384;-76
2021/04/07 06:35:09;;;;;;;17.38;11.30;;;2.50;92.50;;;;;;5075287;28;20916;-77
2021/04/07 06:37:34;;;;;;;18.13;12.00;;;2.50;93.80;;;;;;5081171;28;20410;-77
2021/04/07 06:40:00;;;;;;;15.57;11.50;;;2.60;92.00;;;;;;5083066;28;20406;-77
2021/04/07 06:42:26;;;;;;;14.70;11.40;;;2.50;92.30;;;;;;5087350;28;20412;-76
2021/04/07 06:44:51;;;;;;;15.45;10.10;;;2.50;93.60;;;;;;5081239;28;20394;-76
2021/04/07 06:47:17;;;;;;;13.67;10.03;;;2.60;88.20;;;;;;5059153;28;20508;-73
2021/04/07 06:49:43;;;;;;;13.90;10.60;;;2.70;86.20;;;;;;5074521;28;20402;-74
2021/04/07 06:52:52;;;;;;;13.93;9.50;;;2.70;88.40;;;;;;5080962;28;20398;-74
2021/04/07 06:55:18;;;;;;;13.18;10.25;;;2.70;85.60;;;;;;5059205;28;20761;-73
2021/04/07 06:57:45;;;;;;;14.27;10.07;;;2.70;87.00;;;;;;5075712;28;20411;-74
2021/04/07 07:00:12;;;;;;;15.90;8.95;;;2.80;83.40;;;;;;5079671;28;20750;-73
2021/04/07 07:02:38;;;;;;;11.88;9.00;;;2.80;79.70;;;;;;5073162;28;20541;-73
2021/04/07 07:05:04;;;;;;;14.50;9.50;;;2.90;80.00;;;;;;5085664;28;20971;-77
2021/04/07 07:07:30;;;;;;;12.00;8.68;;;2.90;79.70;;;;;;5061289;28;20803;-77
2021/04/07 07:09:56;;;;;;;11.75;9.43;;;2.90;80.00;;;;;;5075118;28;20379;-75
2021/04/07 07:12:23;;;;;;;13.65;8.80;;;3.00;80.60;;;;;;5057476;28;20842;-75
2021/04/07 07:14:49;;;;;;;13.88;7.88;;;3.00;80.10;;;;;;5082459;28;20384;-74
2021/04/07 07:17:26;;;;;;;10.27;7.15;;;3.00;76.20;;;;;;5088141;28;20391;-74
2021/04/07 07:19:52;;;;;;;10.90;7.63;;;3.00;75.40;;;;;;5090624;28;20380;-74
2021/04/07 07:22:26;;;;;;;9.57;7.20;;;3.00;78.40;;;;;;5091148;28;20437;-73
2021/04/07 07:25:00;;;;;;;11.37;7.70;;;3.00;77.90;;;;;;5072245;28;20387;-74
2021/04/07 07:27:44;;;;;;;13.27;7.78;;;3.10;80.00;;;;;;5089965;28;20391;-74
2021/04/07 07:30:14;;;;;;;12.57;7.60;;;3.10;82.20;;;;;;5092448;22;20460;-77
2021/04/07 07:32:42;;;;;;;8.98;7.05;;;3.00;81.10;;;;;;5050484;28;20397;-77
2021/04/07 07:35:15;;;;;;;12.05;8.23;;;2.90;82.30;;;;;;5067106;28;20381;-78
2021/04/07 07:37:42;;;;;;;9.32;7.80;;;2.80;84.20;;;;;;5065110;28;20503;-77
2021/04/07 07:40:24;;;;;;;10.60;7.93;;;2.80;85.40;;;;;;5047625;28;20411;-79
2021/04/07 07:42:50;;;;;;;12.18;7.43;;;2.70;87.10;;;;;;5064861;28;20385;-77
2021/04/07 07:45:36;;;;;;;9.25;7.47;;;2.70;84.10;;;;;;5046890;28;20402;-78
2021/04/07 07:48:11;;;;;;;13.23;7.43;;;2.70;86.80;;;;;;5033917;28;20399;-78
2021/04/07 07:50:46;;;;;;;9.50;7.40;;;2.80;87.80;;;;;;5046465;28;20379;-75
2021/04/07 07:53:23;;;;;;;8.60;6.60;;;2.90;86.40;;;;;;5048695;28;20375;-76
2021/04/07 07:55:55;;;;;;;6.93;6.07;;;2.90;82.00;;;;;;5022083;28;20391;-79
2021/04/07 07:58:27;;;;;;;6.15;5.55;;;2.90;81.70;;;;;;5056473;28;20392;-79
2021/04/07 08:01:10;;;;;;;6.60;5.88;;;3.10;77.40;;;;;;5044793;28;20492;-78
2021/04/07 08:03:36;;;;;;;6.35;5.75;;;3.20;77.20;;;;;;5048790;28;20461;-76
2021/04/07 08:06:02;;;;;;;7.30;6.07;;;3.30;75.10;;;;;;5068271;28;20531;-79
2021/04/07 08:08:28;;;;;;;8.85;6.95;;;3.30;73.60;;;;;;5067557;28;20397;-78
2021/04/07 08:10:54;;;;;;;7.70;7.00;;;3.40;75.80;;;;;;5067911;28;20535;-77
2021/04/07 08:13:21;;;;;;;11.20;6.70;;;3.40;74.90;;;;;;5069660;28;20413;-77
2021/04/07 08:15:48;;;;;;;8.85;6.60;;;3.40;77.20;;;;;;5069473;28;20419;-76
2021/04/07 08:18:14;;;;;;;7.73;5.90;;;3.40;74.80;;;;;;5070020;28;20507;-77
2021/04/07 08:20:40;;;;;;;6.20;5.60;;;3.40;73.70;;;;;;5047211;28;20421;-78
2021/04/07 08:23:09;;;;;;;5.60;5.10;;;3.50;71.60;;;;;;5060141;28;20400;-79
2021/04/07 08:25:36;;;;;;;5.78;5.28;;;3.40;72.40;;;;;;5066145;28;20396;-79
2021/04/07 08:28:03;;;;;;;6.00;5.50;;;3.30;75.00;;;;;;5048537;28;20389;-80
2021/04/07 08:30:29;;;;;;;6.75;5.55;;;3.40;75.40;;;;;;5042367;28;20461;-80
2021/04/07 08:32:56;;;;;;;5.90;5.40;;;3.30;76.80;;;;;;5042681;28;20394;-80
2021/04/07 08:35:23;;;;;;;6.20;5.70;;;3.30;77.70;;;;;;5060072;28;20916;-80
2021/04/07 08:38:00;;;;;;;5.80;5.30;;;3.40;76.60;;;;;;5061872;28;20393;-80
2021/04/07 08:40:39;;;;;;;5.60;5.10;;;3.40;76.40;;;;;;5062776;28;20750;-79
2021/04/07 08:43:06;;;;;;;5.32;4.90;;;3.40;77.30;;;;;;5061406;28;20381;-77
2021/04/07 08:45:37;;;;;;;5.70;5.20;;;3.40;77.70;;;;;;5051000;28;20384;-75
2021/04/07 08:48:12;;;;;;;5.90;5.30;;;3.50;76.40;;;;;;5056135;28;20391;-76
2021/04/07 08:50:37;;;;;;;5.95;5.35;;;3.40;77.90;;;;;;5073294;28;20381;-78
2021/04/07 08:53:12;;;;;;;6.20;5.60;;;3.40;79.50;;;;;;5055563;28;20373;-76
2021/04/07 08:55:51;;;;;;;6.40;5.72;;;3.50;75.20;;;;;;5072832;28;20378;-78
2021/04/07 08:58:23;;;;;;;5.30;4.80;;;3.50;74.90;;;;;;5054158;28;20433;-77
2021/04/07 09:00:52;;;;;;;6.57;5.93;;;3.40;75.00;;;;;;5045737;28;20442;-79
2021/04/07 09:03:22;;;;;;;5.32;4.82;;;3.30;81.00;;;;;;5050946;28;20403;-78
2021/04/07 09:05:51;;;;;;;6.20;5.60;;;3.30;80.50;;;;;;5040997;28;20377;-78
2021/04/07 09:08:19;;;;;;;6.00;5.47;;;3.30;81.80;;;;;;5060732;28;20915;-80
2021/04/07 09:10:54;;;;;;;8.55;6.72;;;3.30;83.60;;;;;;5057776;28;20382;-79
2021/04/07 09:13:32;;;;;;;6.40;5.90;;;3.40;81.70;;;;;;5039562;28;20405;-80
2021/04/07 09:16:01;;;;;;;7.30;6.60;;;3.50;82.50;;;;;;5056635;28;20393;-80
2021/04/07 09:18:44;;;;;;;7.30;6.35;;;3.60;82.60;;;;;;5059088;28;20386;-79
2021/04/07 09:21:15;;;;;;;6.72;6.13;;;3.60;81.60;;;;;;5060445;28;20405;-77
2021/04/07 09:23:44;;;;;;;7.07;6.38;;;3.70;80.00;;;;;;5041911;28;20378;-79
2021/04/07 09:26:19;;;;;;;6.90;6.20;;;3.70;80.20;;;;;;5061362;28;20394;-79
2021/04/07 09:28:46;;;;;;;6.30;5.80;;;3.80;79.00;;;;;;5062424;28;20411;-78
2021/04/07 09:31:22;;;;;;;6.40;5.80;;;3.80;77.80;;;;;;5030778;28;20408;-78
2021/04/07 09:33:49;;;;;;;6.65;6.05;;;3.60;79.80;;;;;;5045534;28;20404;-80
2021/04/07 09:36:25;;;;;;;6.10;5.50;;;3.60;82.60;;;;;;5044690;28;20401;-80
2021/04/07 09:38:52;;;;;;;6.10;5.60;;;3.60;81.80;;;;;;5064937;28;20393;-79
2021/04/07 09:41:22;;;;;;;6.72;6.10;;;3.60;82.10;;;;;;5026327;28;20449;-80
2021/04/07 09:43:49;;;;;;;7.97;6.47;;;3.70;82.30;;;;;;5046691;28;20466;-77
2021/04/07 09:46:15;;;;;;;6.70;6.20;;;3.90;82.50;;;;;;5065818;28;20393;-77
2021/04/07 09:48:45;;;;;;;6.13;5.47;;;4.10;80.20;;;;;;5068364;28;20502;-80
2021/04/07 09:51:19;;;;;;;6.63;6.00;;;4.20;77.70;;;;;;5064801;28;20412;-74
2021/04/07 09:53:45;;;;;;;6.80;5.30;;;4.20;78.10;;;;;;5048648;28;20367;-79
2021/04/07 09:56:11;;;;;;;7.20;5.60;;;4.10;80.80;;;;;;5057172;28;20427;-72
2021/04/07 09:58:45;;;;;;;7.45;5.88;;;4.10;81.00;;;;;;5057046;28;20382;-80
2021/04/07 10:01:14;;;;;;;7.50;5.30;;;4.20;81.50;;;;;;5055751;28;20405;-74
2021/04/07 10:03:53;;;;;;;5.40;4.90;;;4.30;80.80;;;;;;5056598;28;20439;-76
2021/04/07 10:06:24;;;;;;;9.55;6.05;;;4.30;81.30;;;;;;5056766;28;20425;-76
2021/04/07 10:09:01;;;;;;;7.43;5.18;;;4.30;83.00;;;;;;5056890;28;20396;-76
2021/04/07 10:11:27;;;;;;;8.38;4.93;;;4.40;82.00;;;;;;5055512;28;20428;-74
2021/04/07 10:13:55;;;;;;;6.50;4.65;;;4.50;79.60;;;;;;5055542;28;20405;-78
2021/04/07 10:16:23;;;;;;;5.60;5.00;;;4.50;78.90;;;;;;5056295;28;20416;-73
2021/04/07 10:18:48;;;;;;;7.10;5.30;;;4.50;79.30;;;;;;5056349;28;20411;-77
2021/04/07 10:21:16;;;;;;;7.17;4.60;;;4.50;80.50;;;;;;5057369;28;20409;-75
2021/04/07 10:23:43;;;;;;;5.93;4.60;;;4.60;80.10;;;;;;5045191;28;20397;-76
2021/04/07 10:26:09;;;;;;;4.80;4.30;;;4.70;77.70;;;;;;5057863;28;20390;-77
2021/04/07 10:28:35;;;;;;;4.93;4.00;;;4.60;78.70;;;;;;5057264;28;20508;-75
2021/04/07 10:31:06;;;;;;;3.60;3.40;;;4.70;79.60;;;;;;5039216;28;20792;-77
2021/04/07 10:33:32;;;;;;;4.50;4.10;;;4.80;77.50;;;;;;5059784;28;20792;-76
2021/04/07 10:35:59;;;;;;;4.17;3.77;;;5.10;75.00;;;;;;5044220;28;20389;-76
2021/04/07 10:38:30;;;;;;;4.15;3.80;;;5.40;73.20;;;;;;5061288;28;20404;-75
2021/04/07 10:41:14;;;;;;;4.80;3.92;;;5.70;69.20;;;;;;5064432;28;20410;-77
2021/04/07 10:43:40;;;;;;;7.60;4.40;;;5.80;68.20;;;;;;5044498;28;20397;-76
2021/04/07 10:46:07;;;;;;;5.53;4.28;;;5.70;69.60;;;;;;5069027;28;20381;-79
2021/04/07 10:48:35;;;;;;;9.55;4.80;;;5.50;72.30;;;;;;5063999;28;20429;-79
2021/04/07 10:51:01;;;;;;;6.13;4.50;;;5.20;74.10;;;;;;5057266;28;20900;-77
2021/04/07 10:53:37;;;;;;;6.65;4.90;;;5.00;77.80;;;;;;5058611;28;20408;-76
2021/04/07 10:56:17;;;;;;;10.65;5.30;;;4.80;82.30;;;;;;5055224;28;20414;-74
2021/04/07 10:58:43;;;;;;;14.15;6.15;;;4.80;85.40;;;;;;5062015;28;20402;-81
2021/04/07 11:01:10;;;;;;;10.60;5.70;;;4.80;88.40;;;;;;5063131;28;20427;-79
2021/04/07 11:03:36;;;;;;;14.73;6.82;;;4.90;86.90;;;;;;5049430;28;20390;-79
2021/04/07 11:06:02;;;;;;;17.73;6.70;;;5.00;88.30;;;;;;5063289;28;20402;-81
2021/04/07 11:08:39;;;;;;;13.35;6.50;;;5.20;87.00;;;;;;5064992;28;20401;-76
2021/04/07 11:11:18;;;;;;;14.15;6.63;;;5.30;85.80;;;;;;5081620;28;20393;-77
2021/04/07 11:13:45;;;;;;;19.90;6.00;;;5.50;82.70;;;;;;5075880;28;20416;-77
2021/04/07 11:16:12;;;;;;;13.75;6.32;;;5.80;78.80;;;;;;5075753;28;20406;-78
2021/04/07 11:18:39;;;;;;;14.80;6.40;;;6.00;77.90;;;;;;5062595;28;20395;-78
2021/04/07 11:21:06;;;;;;;21.42;6.88;;;6.10;79.30;;;;;;5057457;28;20440;-78
2021/04/07 11:23:32;;;;;;;15.35;7.15;;;6.20;78.80;;;;;;5053082;28;20389;-79
2021/04/07 11:25:58;;;;;;;14.75;7.15;;;6.80;75.70;;;;;;5051512;28;20415;-77
2021/04/07 11:28:23;;;;;;;15.50;6.50;;;7.30;69.90;;;;;;5053382;28;20386;-80
2021/04/07 11:31:04;;;;;;;11.82;5.18;;;7.70;66.40;;;;;;5070600;28;20405;-78
2021/04/07 11:33:37;;;;;;;14.70;4.20;;;8.00;61.40;;;;;;5056362;28;20428;-77
2021/04/07 11:38:34;;;;;;;13.75;4.75;;;8.10;60.00;;;;;;5066213;28;20517;-77
2021/04/07 11:46:24;;;;;;;14.48;2.92;;;8.20;57.50;;;;;;5054264;28;20401;-77
2021/04/07 11:48:49;;;;;;;9.05;2.90;;;6.70;76.90;;;;;;5054652;28;20492;-77
2021/04/07 11:51:15;;;;;;;12.60;3.17;;;6.10;85.50;;;;;;5068972;28;20469;-78
2021/04/07 11:53:41;;;;;;;16.50;2.75;;;4.60;99.90;;;;;;5060681;28;20429;-75
2021/04/07 11:56:07;;;;;;;16.67;2.30;;;3.50;99.90;;;;;;5039107;28;20455;-77
2021/04/07 11:58:33;;;;;;;10.93;2.50;;;3.20;99.90;;;;;;5048276;28;20860;-76
2021/04/07 12:01:00;;;;;;;15.52;4.10;;;3.30;99.90;;;;;;5055106;28;20765;-75
2021/04/07 12:03:26;;;;;;;19.60;4.88;;;3.50;99.90;;;;;;5056796;28;20394;-76
2021/04/07 12:05:52;;;;;;;28.30;4.30;;;3.80;99.90;;;;;;5062105;28;20447;-78
2021/04/07 12:08:17;;;;;;;22.48;4.13;;;4.00;99.90;;;;;;5059238;28;20397;-78
2021/04/07 12:10:43;;;;;;;27.90;4.72;;;4.10;99.90;;;;;;5024515;28;20421;-78
2021/04/07 12:13:08;;;;;;;17.97;4.10;;;4.20;99.90;;;;;;5025510;28;20399;-76
2021/04/07 12:15:35;;;;;;;22.30;4.73;;;4.40;99.90;;;;;;5060367;28;20381;-79
2021/04/07 12:18:00;;;;;;;24.13;5.93;;;4.70;99.90;;;;;;5046153;28;20393;-77
2021/04/07 12:20:26;;;;;;;24.70;3.90;;;4.90;99.90;;;;;;5047331;28;20394;-78
2021/04/07 12:22:53;;;;;;;15.98;3.17;;;4.90;99.90;;;;;;5067921;28;20494;-77
2021/04/07 12:25:19;;;;;;;12.63;4.28;;;4.80;99.90;;;;;;5066960;28;20413;-78
2021/04/07 12:27:44;;;;;;;12.70;3.73;;;4.80;99.90;;;;;;5060368;28;20394;-79
2021/04/07 12:30:11;;;;;;;5.70;1.80;;;4.70;99.90;;;;;;5042032;28;20393;-77
2021/04/07 12:32:36;;;;;;;16.40;3.35;;;4.70;99.90;;;;;;5040475;28;20455;-78
2021/04/07 12:35:07;;;;;;;23.70;3.83;;;4.70;99.90;;;;;;5041728;28;20386;-79
2021/04/07 12:37:33;;;;;;;10.70;2.13;;;4.70;99.90;;;;;;5061042;28;20393;-76
2021/04/07 12:39:59;;;;;;;6.20;1.90;;;4.40;99.90;;;;;;5059250;28;20393;-76
2021/04/07 12:42:26;;;;;;;7.37;2.13;;;4.30;99.90;;;;;;5057442;28;20414;-77
2021/04/07 12:44:53;;;;;;;7.22;2.42;;;4.10;99.90;;;;;;5058681;28;20382;-75
2021/04/07 12:47:18;;;;;;;11.00;1.70;;;3.90;99.90;;;;;;5060449;28;20461;-76
2021/04/07 12:49:44;;;;;;;1.50;0.90;;;4.00;99.90;;;;;;5065338;28;20382;-76
2021/04/07 12:52:10;;;;;;;0.75;0.70;;;4.20;99.90;;;;;;5064527;28;20408;-76
2021/04/07 12:54:35;;;;;;;0.60;0.50;;;4.30;99.90;;;;;;5043070;28;20393;-75
2021/04/07 12:57:04;;;;;;;0.80;0.60;;;4.40;99.90;;;;;;5065134;28;20461;-77
2021/04/07 12:59:30;;;;;;;0.60;0.43;;;4.50;99.90;;;;;;5061906;28;20424;-77